sensor_id;sensor_type;location;lat;lon;timestamp;P1;durP1;ratioP1;P2;durP2;ratioP2
20480;SDS011;10399;50.754;3.366;2022-07-25T00:00:28;4.82;;;3.15;;
20480;SDS011;10399;50.754;3.366;2022-07-25T00:02:55;7.97;;;2.72;;
20480;SDS011;10399;50.754;3.366;2022-07-25T00:05:23;6.05;;;2.60;;
20480;SDS011;10399;50.754;3.366;2022-07-25T00:07:50;5.13;;;2.70;;
20480;SDS011;10399;50.754;3.366;2022-07-25T00:10:17;7.25;;;3.25;;
20480;SDS011;10399;50.754;3.366;2022-07-25T00:12:44;7.18;;;3.08;;
20480;SDS011;10399;50.754;3.366;2022-07-25T00:15:12;7.45;;;2.85;;
20480;SDS011;10399;50.754;3.366;2022-07-25T00:17:39;4.03;;;2.83;;
20480;SDS011;10399;50.754;3.366;2022-07-25T00:20:07;5.28;;;2.75;;
20480;SDS011;10399;50.754;3.366;2022-07-25T00:22:34;5.93;;;2.80;;
20480;SDS011;10399;50.754;3.366;2022-07-25T00:25:01;7.50;;;2.83;;
20480;SDS011;10399;50.754;3.366;2022-07-25T00:27:29;7.45;;;2.95;;
20480;SDS011;10399;50.754;3.366;2022-07-25T00:29:56;7.20;;;2.95;;
20480;SDS011;10399;50.754;3.366;2022-07-25T00:32:23;3.65;;;2.42;;
20480;SDS011;10399;50.754;3.366;2022-07-25T00:34:50;12.82;;;3.08;;
20480;SDS011;10399;50.754;3.366;2022-07-25T00:37:17;6.05;;;2.72;;
20480;SDS011;10399;50.754;3.366;2022-07-25T00:39:47;5.32;;;2.80;;
20480;SDS011;10399;50.754;3.366;2022-07-25T00:42:14;4.38;;;2.95;;
20480;SDS011;10399;50.754;3.366;2022-07-25T00:44:42;8.15;;;2.90;;
20480;SDS011;10399;50.754;3.366;2022-07-25T00:47:09;3.40;;;2.70;;
20480;SDS011;10399;50.754;3.366;2022-07-25T00:49:36;6.32;;;3.10;;
20480;SDS011;10399;50.754;3.366;2022-07-25T00:52:03;4.80;;;2.58;;
20480;SDS011;10399;50.754;3.366;2022-07-25T00:54:31;3.30;;;2.63;;
20480;SDS011;10399;50.754;3.366;2022-07-25T00:56:58;4.78;;;2.92;;
20480;SDS011;10399;50.754;3.366;2022-07-25T00:59:26;7.25;;;3.80;;
20480;SDS011;10399;50.754;3.366;2022-07-25T01:01:54;5.72;;;3.38;;
20480;SDS011;10399;50.754;3.366;2022-07-25T01:04:21;5.97;;;2.95;;
20480;SDS011;10399;50.754;3.366;2022-07-25T01:06:48;6.20;;;3.22;;
20480;SDS011;10399;50.754;3.366;2022-07-25T01:09:16;5.05;;;3.28;;
20480;SDS011;10399;50.754;3.366;2022-07-25T01:11:45;7.38;;;3.30;;
20480;SDS011;10399;50.754;3.366;2022-07-25T01:14:12;5.00;;;3.38;;
20480;SDS011;10399;50.754;3.366;2022-07-25T01:16:39;6.40;;;3.33;;
20480;SDS011;10399;50.754;3.366;2022-07-25T01:19:06;6.30;;;3.78;;
20480;SDS011;10399;50.754;3.366;2022-07-25T01:21:38;4.68;;;3.67;;
20480;SDS011;10399;50.754;3.366;2022-07-25T01:24:07;5.82;;;4.15;;
20480;SDS011;10399;50.754;3.366;2022-07-25T01:26:35;7.63;;;3.95;;
20480;SDS011;10399;50.754;3.366;2022-07-25T01:29:03;10.25;;;5.03;;
20480;SDS011;10399;50.754;3.366;2022-07-25T01:31:30;6.32;;;4.15;;
20480;SDS011;10399;50.754;3.366;2022-07-25T01:33:57;8.85;;;5.20;;
20480;SDS011;10399;50.754;3.366;2022-07-25T01:36:24;8.63;;;4.90;;
20480;SDS011;10399;50.754;3.366;2022-07-25T01:38:51;7.32;;;4.88;;
20480;SDS011;10399;50.754;3.366;2022-07-25T01:41:19;11.02;;;5.15;;
20480;SDS011;10399;50.754;3.366;2022-07-25T01:43:47;11.52;;;5.03;;
20480;SDS011;10399;50.754;3.366;2022-07-25T01:46:14;7.15;;;4.80;;
20480;SDS011;10399;50.754;3.366;2022-07-25T01:48:42;8.50;;;5.05;;
20480;SDS011;10399;50.754;3.366;2022-07-25T01:51:09;10.13;;;5.00;;
20480;SDS011;10399;50.754;3.366;2022-07-25T01:53:36;10.55;;;4.95;;
20480;SDS011;10399;50.754;3.366;2022-07-25T01:56:07;7.88;;;5.13;;
20480;SDS011;10399;50.754;3.366;2022-07-25T01:58:36;8.40;;;4.50;;
20480;SDS011;10399;50.754;3.366;2022-07-25T02:01:03;10.15;;;4.90;;
20480;SDS011;10399;50.754;3.366;2022-07-25T02:03:31;14.65;;;4.88;;
20480;SDS011;10399;50.754;3.366;2022-07-25T02:06:02;7.57;;;4.32;;
20480;SDS011;10399;50.754;3.366;2022-07-25T02:08:31;8.00;;;4.60;;
20480;SDS011;10399;50.754;3.366;2022-07-25T02:10:58;8.88;;;4.60;;
20480;SDS011;10399;50.754;3.366;2022-07-25T02:13:26;5.75;;;4.32;;
20480;SDS011;10399;50.754;3.366;2022-07-25T02:15:53;10.52;;;4.32;;
20480;SDS011;10399;50.754;3.366;2022-07-25T02:18:20;8.35;;;4.78;;
20480;SDS011;10399;50.754;3.366;2022-07-25T02:20:47;9.05;;;4.60;;
20480;SDS011;10399;50.754;3.366;2022-07-25T02:23:14;7.75;;;4.65;;
20480;SDS011;10399;50.754;3.366;2022-07-25T02:25:42;8.32;;;4.47;;
20480;SDS011;10399;50.754;3.366;2022-07-25T02:28:10;8.32;;;4.70;;
20480;SDS011;10399;50.754;3.366;2022-07-25T02:30:37;10.43;;;4.60;;
20480;SDS011;10399;50.754;3.366;2022-07-25T02:33:04;5.82;;;3.88;;
20480;SDS011;10399;50.754;3.366;2022-07-25T02:35:31;7.70;;;4.20;;
20480;SDS011;10399;50.754;3.366;2022-07-25T02:37:58;6.43;;;3.97;;
20480;SDS011;10399;50.754;3.366;2022-07-25T02:40:25;5.72;;;3.80;;
20480;SDS011;10399;50.754;3.366;2022-07-25T02:42:52;7.22;;;3.75;;
20480;SDS011;10399;50.754;3.366;2022-07-25T02:45:19;5.53;;;3.58;;
20480;SDS011;10399;50.754;3.366;2022-07-25T02:47:46;6.60;;;4.05;;
20480;SDS011;10399;50.754;3.366;2022-07-25T02:50:13;5.78;;;3.55;;
20480;SDS011;10399;50.754;3.366;2022-07-25T02:52:40;7.30;;;3.70;;
20480;SDS011;10399;50.754;3.366;2022-07-25T02:55:08;8.55;;;3.88;;
20480;SDS011;10399;50.754;3.366;2022-07-25T02:57:35;7.50;;;3.60;;
20480;SDS011;10399;50.754;3.366;2022-07-25T03:00:03;16.10;;;3.63;;
20480;SDS011;10399;50.754;3.366;2022-07-25T03:02:32;5.35;;;3.17;;
20480;SDS011;10399;50.754;3.366;2022-07-25T03:04:59;9.35;;;3.15;;
20480;SDS011;10399;50.754;3.366;2022-07-25T03:07:26;6.20;;;3.30;;
20480;SDS011;10399;50.754;3.366;2022-07-25T03:09:53;3.72;;;2.72;;
20480;SDS011;10399;50.754;3.366;2022-07-25T03:12:20;5.55;;;3.28;;
20480;SDS011;10399;50.754;3.366;2022-07-25T03:14:47;5.75;;;3.05;;
20480;SDS011;10399;50.754;3.366;2022-07-25T03:17:14;6.18;;;3.10;;
20480;SDS011;10399;50.754;3.366;2022-07-25T03:19:40;4.72;;;3.15;;
20480;SDS011;10399;50.754;3.366;2022-07-25T03:22:07;4.15;;;2.78;;
20480;SDS011;10399;50.754;3.366;2022-07-25T03:24:35;8.35;;;2.83;;
20480;SDS011;10399;50.754;3.366;2022-07-25T03:27:02;9.50;;;2.50;;
20480;SDS011;10399;50.754;3.366;2022-07-25T03:29:29;5.88;;;2.20;;
20480;SDS011;10399;50.754;3.366;2022-07-25T03:31:56;3.50;;;2.03;;
20480;SDS011;10399;50.754;3.366;2022-07-25T03:34:24;5.55;;;2.67;;
20480;SDS011;10399;50.754;3.366;2022-07-25T03:36:51;3.10;;;1.70;;
20480;SDS011;10399;50.754;3.366;2022-07-25T03:39:18;4.50;;;1.77;;
20480;SDS011;10399;50.754;3.366;2022-07-25T03:41:45;4.45;;;2.05;;
20480;SDS011;10399;50.754;3.366;2022-07-25T03:44:13;2.65;;;2.20;;
20480;SDS011;10399;50.754;3.366;2022-07-25T03:46:40;5.05;;;2.00;;
20480;SDS011;10399;50.754;3.366;2022-07-25T03:49:07;3.47;;;2.08;;
20480;SDS011;10399;50.754;3.366;2022-07-25T03:51:34;2.63;;;1.98;;
20480;SDS011;10399;50.754;3.366;2022-07-25T03:54:01;4.22;;;2.00;;
20480;SDS011;10399;50.754;3.366;2022-07-25T03:56:28;4.70;;;2.40;;
20480;SDS011;10399;50.754;3.366;2022-07-25T03:58:58;4.72;;;2.20;;
20480;SDS011;10399;50.754;3.366;2022-07-25T04:01:25;4.30;;;2.17;;
20480;SDS011;10399;50.754;3.366;2022-07-25T04:03:52;7.00;;;2.05;;
20480;SDS011;10399;50.754;3.366;2022-07-25T04:06:19;4.60;;;2.20;;
20480;SDS011;10399;50.754;3.366;2022-07-25T04:08:46;6.63;;;2.10;;
20480;SDS011;10399;50.754;3.366;2022-07-25T04:11:13;5.00;;;2.30;;
20480;SDS011;10399;50.754;3.366;2022-07-25T04:13:41;3.30;;;1.92;;
20480;SDS011;10399;50.754;3.366;2022-07-25T04:16:08;5.45;;;2.33;;
20480;SDS011;10399;50.754;3.366;2022-07-25T04:18:47;5.70;;;2.30;;
20480;SDS011;10399;50.754;3.366;2022-07-25T04:21:16;2.92;;;1.83;;
20480;SDS011;10399;50.754;3.366;2022-07-25T04:23:43;3.50;;;2.20;;
20480;SDS011;10399;50.754;3.366;2022-07-25T04:26:10;3.05;;;1.80;;
20480;SDS011;10399;50.754;3.366;2022-07-25T04:28:37;4.28;;;2.17;;
20480;SDS011;10399;50.754;3.366;2022-07-25T04:31:04;5.97;;;2.22;;
20480;SDS011;10399;50.754;3.366;2022-07-25T04:33:31;3.22;;;2.30;;
20480;SDS011;10399;50.754;3.366;2022-07-25T04:35:58;4.00;;;2.58;;
20480;SDS011;10399;50.754;3.366;2022-07-25T04:38:25;5.13;;;1.95;;
20480;SDS011;10399;50.754;3.366;2022-07-25T04:40:52;3.67;;;2.13;;
20480;SDS011;10399;50.754;3.366;2022-07-25T04:43:19;3.97;;;2.13;;
20480;SDS011;10399;50.754;3.366;2022-07-25T04:45:46;5.75;;;2.42;;
20480;SDS011;10399;50.754;3.366;2022-07-25T04:48:13;7.43;;;2.60;;
20480;SDS011;10399;50.754;3.366;2022-07-25T04:50:40;6.10;;;2.72;;
20480;SDS011;10399;50.754;3.366;2022-07-25T04:53:07;9.98;;;2.42;;
20480;SDS011;10399;50.754;3.366;2022-07-25T04:55:34;5.88;;;2.15;;
20480;SDS011;10399;50.754;3.366;2022-07-25T04:58:04;9.73;;;3.00;;
20480;SDS011;10399;50.754;3.366;2022-07-25T05:00:31;11.93;;;2.72;;
20480;SDS011;10399;50.754;3.366;2022-07-25T05:02:58;6.80;;;2.47;;
20480;SDS011;10399;50.754;3.366;2022-07-25T05:05:25;7.90;;;2.72;;
20480;SDS011;10399;50.754;3.366;2022-07-25T05:07:56;8.38;;;2.25;;
20480;SDS011;10399;50.754;3.366;2022-07-25T05:10:25;8.82;;;2.38;;
20480;SDS011;10399;50.754;3.366;2022-07-25T05:12:53;7.32;;;2.75;;
20480;SDS011;10399;50.754;3.366;2022-07-25T05:15:21;9.65;;;2.60;;
20480;SDS011;10399;50.754;3.366;2022-07-25T05:17:49;7.88;;;2.47;;
20480;SDS011;10399;50.754;3.366;2022-07-25T05:20:15;14.52;;;2.83;;
20480;SDS011;10399;50.754;3.366;2022-07-25T05:22:42;8.77;;;2.40;;
20480;SDS011;10399;50.754;3.366;2022-07-25T05:25:10;4.60;;;2.38;;
20480;SDS011;10399;50.754;3.366;2022-07-25T05:27:37;3.90;;;2.15;;
20480;SDS011;10399;50.754;3.366;2022-07-25T05:30:05;10.63;;;2.30;;
20480;SDS011;10399;50.754;3.366;2022-07-25T05:32:34;10.20;;;2.58;;
20480;SDS011;10399;50.754;3.366;2022-07-25T05:35:02;10.32;;;2.50;;
20480;SDS011;10399;50.754;3.366;2022-07-25T05:37:31;10.18;;;2.90;;
20480;SDS011;10399;50.754;3.366;2022-07-25T05:39:58;7.10;;;2.63;;
20480;SDS011;10399;50.754;3.366;2022-07-25T05:42:25;10.15;;;2.85;;
20480;SDS011;10399;50.754;3.366;2022-07-25T05:44:52;5.53;;;2.85;;
20480;SDS011;10399;50.754;3.366;2022-07-25T05:47:19;9.70;;;2.88;;
20480;SDS011;10399;50.754;3.366;2022-07-25T05:49:46;6.85;;;2.88;;
20480;SDS011;10399;50.754;3.366;2022-07-25T05:52:13;9.10;;;2.83;;
20480;SDS011;10399;50.754;3.366;2022-07-25T05:54:40;8.48;;;2.47;;
20480;SDS011;10399;50.754;3.366;2022-07-25T05:57:08;5.78;;;2.80;;
20480;SDS011;10399;50.754;3.366;2022-07-25T05:59:35;6.18;;;3.05;;
20480;SDS011;10399;50.754;3.366;2022-07-25T06:02:01;6.95;;;2.90;;
20480;SDS011;10399;50.754;3.366;2022-07-25T06:04:29;9.88;;;3.60;;
20480;SDS011;10399;50.754;3.366;2022-07-25T06:06:56;4.10;;;2.67;;
20480;SDS011;10399;50.754;3.366;2022-07-25T06:09:22;8.25;;;3.40;;
20480;SDS011;10399;50.754;3.366;2022-07-25T06:11:50;3.30;;;2.78;;
20480;SDS011;10399;50.754;3.366;2022-07-25T06:14:25;6.47;;;2.55;;
20480;SDS011;10399;50.754;3.366;2022-07-25T06:16:53;5.80;;;2.13;;
20480;SDS011;10399;50.754;3.366;2022-07-25T06:19:21;6.07;;;2.55;;
20480;SDS011;10399;50.754;3.366;2022-07-25T06:21:48;3.88;;;1.95;;
20480;SDS011;10399;50.754;3.366;2022-07-25T06:24:15;9.20;;;2.00;;
20480;SDS011;10399;50.754;3.366;2022-07-25T06:26:42;6.38;;;2.15;;
20480;SDS011;10399;50.754;3.366;2022-07-25T06:29:09;13.00;;;1.98;;
20480;SDS011;10399;50.754;3.366;2022-07-25T06:31:36;4.20;;;1.83;;
20480;SDS011;10399;50.754;3.366;2022-07-25T06:34:03;5.65;;;1.90;;
20480;SDS011;10399;50.754;3.366;2022-07-25T06:36:31;6.15;;;1.75;;
20480;SDS011;10399;50.754;3.366;2022-07-25T06:38:58;8.27;;;1.90;;
20480;SDS011;10399;50.754;3.366;2022-07-25T06:41:25;4.20;;;1.40;;
20480;SDS011;10399;50.754;3.366;2022-07-25T06:43:52;4.03;;;1.55;;
20480;SDS011;10399;50.754;3.366;2022-07-25T06:46:19;6.35;;;2.08;;
20480;SDS011;10399;50.754;3.366;2022-07-25T06:48:46;7.60;;;1.65;;
20480;SDS011;10399;50.754;3.366;2022-07-25T06:51:14;5.78;;;1.77;;
20480;SDS011;10399;50.754;3.366;2022-07-25T06:53:41;5.60;;;1.85;;
20480;SDS011;10399;50.754;3.366;2022-07-25T06:56:07;3.70;;;1.35;;
20480;SDS011;10399;50.754;3.366;2022-07-25T06:58:39;4.07;;;1.40;;
20480;SDS011;10399;50.754;3.366;2022-07-25T07:01:06;5.47;;;1.60;;
20480;SDS011;10399;50.754;3.366;2022-07-25T07:03:33;4.90;;;1.38;;
20480;SDS011;10399;50.754;3.366;2022-07-25T07:06:04;3.00;;;1.30;;
20480;SDS011;10399;50.754;3.366;2022-07-25T07:08:31;3.78;;;1.60;;
20480;SDS011;10399;50.754;3.366;2022-07-25T07:10:59;5.03;;;1.50;;
20480;SDS011;10399;50.754;3.366;2022-07-25T07:13:26;4.97;;;2.00;;
20480;SDS011;10399;50.754;3.366;2022-07-25T07:15:53;7.95;;;2.20;;
20480;SDS011;10399;50.754;3.366;2022-07-25T07:18:21;8.80;;;2.47;;
20480;SDS011;10399;50.754;3.366;2022-07-25T07:20:48;4.22;;;1.70;;
20480;SDS011;10399;50.754;3.366;2022-07-25T07:23:17;4.68;;;2.10;;
20480;SDS011;10399;50.754;3.366;2022-07-25T07:25:44;3.65;;;2.05;;
20480;SDS011;10399;50.754;3.366;2022-07-25T07:28:12;7.38;;;2.03;;
20480;SDS011;10399;50.754;3.366;2022-07-25T07:30:40;8.68;;;2.17;;
20480;SDS011;10399;50.754;3.366;2022-07-25T07:33:27;6.38;;;1.80;;
20480;SDS011;10399;50.754;3.366;2022-07-25T07:35:54;5.97;;;1.70;;
20480;SDS011;10399;50.754;3.366;2022-07-25T07:38:23;5.63;;;1.95;;
20480;SDS011;10399;50.754;3.366;2022-07-25T07:40:50;11.50;;;2.05;;
20480;SDS011;10399;50.754;3.366;2022-07-25T07:43:19;7.05;;;2.15;;
20480;SDS011;10399;50.754;3.366;2022-07-25T07:45:50;6.78;;;1.77;;
20480;SDS011;10399;50.754;3.366;2022-07-25T07:48:17;5.47;;;1.88;;
20480;SDS011;10399;50.754;3.366;2022-07-25T07:50:44;10.05;;;1.80;;
20480;SDS011;10399;50.754;3.366;2022-07-25T07:53:11;6.07;;;1.90;;
20480;SDS011;10399;50.754;3.366;2022-07-25T07:55:38;7.95;;;1.88;;
20480;SDS011;10399;50.754;3.366;2022-07-25T07:58:12;3.97;;;1.60;;
20480;SDS011;10399;50.754;3.366;2022-07-25T08:00:47;5.22;;;1.90;;
20480;SDS011;10399;50.754;3.366;2022-07-25T08:03:18;3.97;;;2.10;;
20480;SDS011;10399;50.754;3.366;2022-07-25T08:05:46;5.05;;;1.85;;
20480;SDS011;10399;50.754;3.366;2022-07-25T08:08:14;5.40;;;2.00;;
20480;SDS011;10399;50.754;3.366;2022-07-25T08:10:45;9.02;;;1.80;;
20480;SDS011;10399;50.754;3.366;2022-07-25T08:13:14;11.63;;;2.38;;
20480;SDS011;10399;50.754;3.366;2022-07-25T08:15:43;9.50;;;2.20;;
20480;SDS011;10399;50.754;3.366;2022-07-25T08:18:12;8.85;;;2.30;;
20480;SDS011;10399;50.754;3.366;2022-07-25T08:20:43;9.38;;;2.00;;
20480;SDS011;10399;50.754;3.366;2022-07-25T08:23:11;10.90;;;2.70;;
20480;SDS011;10399;50.754;3.366;2022-07-25T08:25:38;8.95;;;2.20;;
20480;SDS011;10399;50.754;3.366;2022-07-25T08:28:05;8.68;;;2.20;;
20480;SDS011;10399;50.754;3.366;2022-07-25T08:30:33;9.35;;;2.75;;
20480;SDS011;10399;50.754;3.366;2022-07-25T08:33:02;6.40;;;2.03;;
20480;SDS011;10399;50.754;3.366;2022-07-25T08:35:31;7.40;;;2.20;;
20480;SDS011;10399;50.754;3.366;2022-07-25T08:37:59;9.27;;;2.15;;
20480;SDS011;10399;50.754;3.366;2022-07-25T08:40:28;8.23;;;2.42;;
20480;SDS011;10399;50.754;3.366;2022-07-25T08:42:56;6.82;;;2.08;;
20480;SDS011;10399;50.754;3.366;2022-07-25T08:45:24;8.73;;;2.28;;
20480;SDS011;10399;50.754;3.366;2022-07-25T08:47:53;7.05;;;2.22;;
20480;SDS011;10399;50.754;3.366;2022-07-25T08:50:21;5.65;;;2.20;;
20480;SDS011;10399;50.754;3.366;2022-07-25T08:52:50;9.32;;;3.03;;
20480;SDS011;10399;50.754;3.366;2022-07-25T08:55:37;6.70;;;2.13;;
20480;SDS011;10399;50.754;3.366;2022-07-25T08:58:04;8.05;;;2.58;;
20480;SDS011;10399;50.754;3.366;2022-07-25T09:00:31;6.75;;;2.30;;
20480;SDS011;10399;50.754;3.366;2022-07-25T09:03:02;8.75;;;2.33;;
20480;SDS011;10399;50.754;3.366;2022-07-25T09:05:31;7.95;;;2.20;;
20480;SDS011;10399;50.754;3.366;2022-07-25T09:08:12;5.10;;;1.85;;
20480;SDS011;10399;50.754;3.366;2022-07-25T09:10:44;6.80;;;2.22;;
20480;SDS011;10399;50.754;3.366;2022-07-25T09:13:13;7.93;;;2.17;;
20480;SDS011;10399;50.754;3.366;2022-07-25T09:15:45;9.50;;;2.15;;
20480;SDS011;10399;50.754;3.366;2022-07-25T09:18:15;7.05;;;2.33;;
20480;SDS011;10399;50.754;3.366;2022-07-25T09:20:45;10.73;;;2.33;;
20480;SDS011;10399;50.754;3.366;2022-07-25T09:23:14;11.75;;;2.55;;
20480;SDS011;10399;50.754;3.366;2022-07-25T09:26:00;9.73;;;2.83;;
20480;SDS011;10399;50.754;3.366;2022-07-25T09:28:38;9.43;;;2.42;;
20480;SDS011;10399;50.754;3.366;2022-07-25T09:31:07;7.22;;;2.10;;
20480;SDS011;10399;50.754;3.366;2022-07-25T09:33:43;10.40;;;2.50;;
20480;SDS011;10399;50.754;3.366;2022-07-25T09:36:19;8.45;;;2.60;;
20480;SDS011;10399;50.754;3.366;2022-07-25T09:38:53;8.60;;;2.28;;
20480;SDS011;10399;50.754;3.366;2022-07-25T09:41:37;11.75;;;2.47;;
20480;SDS011;10399;50.754;3.366;2022-07-25T09:44:15;12.07;;;2.40;;
20480;SDS011;10399;50.754;3.366;2022-07-25T09:46:43;6.85;;;2.20;;
20480;SDS011;10399;50.754;3.366;2022-07-25T09:49:10;7.97;;;2.25;;
20480;SDS011;10399;50.754;3.366;2022-07-25T09:51:40;11.57;;;2.67;;
20480;SDS011;10399;50.754;3.366;2022-07-25T09:54:08;10.93;;;2.47;;
20480;SDS011;10399;50.754;3.366;2022-07-25T09:56:35;8.18;;;2.70;;
20480;SDS011;10399;50.754;3.366;2022-07-25T09:59:03;12.82;;;2.50;;
20480;SDS011;10399;50.754;3.366;2022-07-25T10:01:36;12.65;;;2.75;;
20480;SDS011;10399;50.754;3.366;2022-07-25T10:07:03;6.68;;;2.00;;
20480;SDS011;10399;50.754;3.366;2022-07-25T10:09:48;10.70;;;2.75;;
20480;SDS011;10399;50.754;3.366;2022-07-25T10:12:21;5.78;;;2.30;;
20480;SDS011;10399;50.754;3.366;2022-07-25T10:17:39;9.07;;;2.53;;
20480;SDS011;10399;50.754;3.366;2022-07-25T10:20:07;8.48;;;2.22;;
20480;SDS011;10399;50.754;3.366;2022-07-25T10:25:22;14.73;;;2.80;;
20480;SDS011;10399;50.754;3.366;2022-07-25T10:27:49;11.10;;;2.35;;
20480;SDS011;10399;50.754;3.366;2022-07-25T10:30:24;7.10;;;1.70;;
20480;SDS011;10399;50.754;3.366;2022-07-25T10:33:12;9.30;;;2.20;;
20480;SDS011;10399;50.754;3.366;2022-07-25T10:35:40;8.63;;;2.17;;
20480;SDS011;10399;50.754;3.366;2022-07-25T10:38:09;5.75;;;2.00;;
20480;SDS011;10399;50.754;3.366;2022-07-25T10:40:37;12.45;;;2.15;;
20480;SDS011;10399;50.754;3.366;2022-07-25T10:46:33;8.75;;;2.38;;
20480;SDS011;10399;50.754;3.366;2022-07-25T10:48:40;8.73;;;2.22;;
20480;SDS011;10399;50.754;3.366;2022-07-25T10:51:09;8.23;;;1.63;;
20480;SDS011;10399;50.754;3.366;2022-07-25T10:53:42;7.38;;;1.60;;
20480;SDS011;10399;50.754;3.366;2022-07-25T10:56:13;8.88;;;1.90;;
20480;SDS011;10399;50.754;3.366;2022-07-25T10:58:58;7.40;;;1.77;;
20480;SDS011;10399;50.754;3.366;2022-07-25T11:01:30;9.75;;;2.20;;
20480;SDS011;10399;50.754;3.366;2022-07-25T11:04:03;6.85;;;1.65;;
20480;SDS011;10399;50.754;3.366;2022-07-25T11:06:38;8.13;;;1.88;;
20480;SDS011;10399;50.754;3.366;2022-07-25T11:09:13;7.93;;;2.28;;
20480;SDS011;10399;50.754;3.366;2022-07-25T11:11:56;9.07;;;1.90;;
20480;SDS011;10399;50.754;3.366;2022-07-25T11:17:18;13.57;;;1.83;;
20480;SDS011;10399;50.754;3.366;2022-07-25T11:19:57;8.25;;;2.30;;
20480;SDS011;10399;50.754;3.366;2022-07-25T11:22:27;7.90;;;2.15;;
20480;SDS011;10399;50.754;3.366;2022-07-25T11:24:55;10.82;;;2.33;;
20480;SDS011;10399;50.754;3.366;2022-07-25T11:27:27;7.13;;;2.08;;
20480;SDS011;10399;50.754;3.366;2022-07-25T11:30:09;14.98;;;3.35;;
20480;SDS011;10399;50.754;3.366;2022-07-25T11:32:40;8.88;;;2.00;;
20480;SDS011;10399;50.754;3.366;2022-07-25T11:35:13;6.47;;;1.90;;
20480;SDS011;10399;50.754;3.366;2022-07-25T11:37:41;9.20;;;1.88;;
20480;SDS011;10399;50.754;3.366;2022-07-25T11:40:13;5.80;;;1.80;;
20480;SDS011;10399;50.754;3.366;2022-07-25T11:42:45;12.68;;;1.70;;
20480;SDS011;10399;50.754;3.366;2022-07-25T11:45:35;10.05;;;2.38;;
20480;SDS011;10399;50.754;3.366;2022-07-25T11:48:05;8.95;;;1.80;;
20480;SDS011;10399;50.754;3.366;2022-07-25T11:50:40;5.32;;;1.52;;
20480;SDS011;10399;50.754;3.366;2022-07-25T11:53:10;12.50;;;1.75;;
20480;SDS011;10399;50.754;3.366;2022-07-25T11:55:40;4.30;;;1.40;;
20480;SDS011;10399;50.754;3.366;2022-07-25T11:58:09;6.22;;;1.77;;
20480;SDS011;10399;50.754;3.366;2022-07-25T12:00:39;6.38;;;1.52;;
20480;SDS011;10399;50.754;3.366;2022-07-25T12:03:10;10.70;;;1.45;;
20480;SDS011;10399;50.754;3.366;2022-07-25T12:05:45;8.20;;;1.75;;
20480;SDS011;10399;50.754;3.366;2022-07-25T12:08:14;7.47;;;1.75;;
20480;SDS011;10399;50.754;3.366;2022-07-25T12:10:43;8.13;;;1.40;;
20480;SDS011;10399;50.754;3.366;2022-07-25T12:13:25;9.10;;;1.50;;
20480;SDS011;10399;50.754;3.366;2022-07-25T12:15:54;7.10;;;1.50;;
20480;SDS011;10399;50.754;3.366;2022-07-25T12:18:22;7.82;;;1.40;;
20480;SDS011;10399;50.754;3.366;2022-07-25T12:20:50;4.70;;;1.02;;
20480;SDS011;10399;50.754;3.366;2022-07-25T12:23:19;5.80;;;0.90;;
20480;SDS011;10399;50.754;3.366;2022-07-25T12:25:49;6.20;;;1.02;;
20480;SDS011;10399;50.754;3.366;2022-07-25T12:28:16;7.68;;;1.23;;
20480;SDS011;10399;50.754;3.366;2022-07-25T12:30:44;5.60;;;1.23;;
20480;SDS011;10399;50.754;3.366;2022-07-25T12:33:12;5.15;;;1.00;;
20480;SDS011;10399;50.754;3.366;2022-07-25T12:35:39;9.05;;;1.50;;
20480;SDS011;10399;50.754;3.366;2022-07-25T12:38:08;6.88;;;1.17;;
20480;SDS011;10399;50.754;3.366;2022-07-25T12:40:36;8.50;;;1.27;;
20480;SDS011;10399;50.754;3.366;2022-07-25T12:43:03;9.95;;;1.55;;
20480;SDS011;10399;50.754;3.366;2022-07-25T12:45:31;4.90;;;0.80;;
20480;SDS011;10399;50.754;3.366;2022-07-25T12:47:58;3.13;;;0.75;;
20480;SDS011;10399;50.754;3.366;2022-07-25T12:50:25;6.35;;;1.15;;
20480;SDS011;10399;50.754;3.366;2022-07-25T12:52:52;9.73;;;0.98;;
20480;SDS011;10399;50.754;3.366;2022-07-25T12:55:19;6.25;;;1.02;;
20480;SDS011;10399;50.754;3.366;2022-07-25T12:57:46;8.23;;;1.05;;
20480;SDS011;10399;50.754;3.366;2022-07-25T13:00:15;7.03;;;1.30;;
20480;SDS011;10399;50.754;3.366;2022-07-25T13:02:44;4.05;;;1.25;;
20480;SDS011;10399;50.754;3.366;2022-07-25T13:05:12;7.38;;;1.08;;
20480;SDS011;10399;50.754;3.366;2022-07-25T13:07:39;10.93;;;1.10;;
20480;SDS011;10399;50.754;3.366;2022-07-25T13:10:06;3.60;;;1.13;;
20480;SDS011;10399;50.754;3.366;2022-07-25T13:12:33;4.03;;;0.90;;
20480;SDS011;10399;50.754;3.366;2022-07-25T13:15:00;5.35;;;0.65;;
20480;SDS011;10399;50.754;3.366;2022-07-25T13:17:27;6.03;;;1.40;;
20480;SDS011;10399;50.754;3.366;2022-07-25T13:19:55;2.20;;;0.60;;
20480;SDS011;10399;50.754;3.366;2022-07-25T13:22:22;4.75;;;0.93;;
20480;SDS011;10399;50.754;3.366;2022-07-25T13:24:49;7.38;;;0.98;;
20480;SDS011;10399;50.754;3.366;2022-07-25T13:27:17;4.35;;;0.65;;
20480;SDS011;10399;50.754;3.366;2022-07-25T13:29:45;7.07;;;0.98;;
20480;SDS011;10399;50.754;3.366;2022-07-25T13:32:12;3.42;;;0.73;;
20480;SDS011;10399;50.754;3.366;2022-07-25T13:34:39;6.97;;;0.85;;
20480;SDS011;10399;50.754;3.366;2022-07-25T13:37:06;6.15;;;0.60;;
20480;SDS011;10399;50.754;3.366;2022-07-25T13:39:34;3.85;;;0.75;;
20480;SDS011;10399;50.754;3.366;2022-07-25T13:42:03;7.88;;;1.30;;
20480;SDS011;10399;50.754;3.366;2022-07-25T13:44:31;4.10;;;0.70;;
20480;SDS011;10399;50.754;3.366;2022-07-25T13:46:57;4.68;;;0.60;;
20480;SDS011;10399;50.754;3.366;2022-07-25T13:49:24;3.83;;;0.75;;
20480;SDS011;10399;50.754;3.366;2022-07-25T13:51:52;2.45;;;0.70;;
20480;SDS011;10399;50.754;3.366;2022-07-25T13:54:18;4.30;;;0.63;;
20480;SDS011;10399;50.754;3.366;2022-07-25T13:56:46;4.38;;;0.65;;
20480;SDS011;10399;50.754;3.366;2022-07-25T13:59:13;7.35;;;0.70;;
20480;SDS011;10399;50.754;3.366;2022-07-25T14:01:46;2.53;;;0.70;;
20480;SDS011;10399;50.754;3.366;2022-07-25T14:04:13;3.58;;;0.68;;
20480;SDS011;10399;50.754;3.366;2022-07-25T14:06:41;1.25;;;0.63;;
20480;SDS011;10399;50.754;3.366;2022-07-25T14:09:08;3.15;;;0.80;;
20480;SDS011;10399;50.754;3.366;2022-07-25T14:11:36;4.22;;;0.63;;
20480;SDS011;10399;50.754;3.366;2022-07-25T14:14:03;1.65;;;0.70;;
20480;SDS011;10399;50.754;3.366;2022-07-25T14:16:30;2.33;;;0.60;;
20480;SDS011;10399;50.754;3.366;2022-07-25T14:18:59;4.93;;;1.13;;
20480;SDS011;10399;50.754;3.366;2022-07-25T14:21:27;6.88;;;1.00;;
20480;SDS011;10399;50.754;3.366;2022-07-25T14:23:54;4.63;;;0.88;;
20480;SDS011;10399;50.754;3.366;2022-07-25T14:26:21;6.63;;;1.27;;
20480;SDS011;10399;50.754;3.366;2022-07-25T14:28:49;8.18;;;0.90;;
20480;SDS011;10399;50.754;3.366;2022-07-25T14:31:16;5.28;;;1.00;;
20480;SDS011;10399;50.754;3.366;2022-07-25T14:33:43;4.15;;;0.68;;
20480;SDS011;10399;50.754;3.366;2022-07-25T14:36:10;6.55;;;1.17;;
20480;SDS011;10399;50.754;3.366;2022-07-25T14:38:37;6.13;;;1.58;;
20480;SDS011;10399;50.754;3.366;2022-07-25T14:41:06;2.92;;;0.80;;
20480;SDS011;10399;50.754;3.366;2022-07-25T14:43:38;3.45;;;0.82;;
20480;SDS011;10399;50.754;3.366;2022-07-25T14:46:06;11.68;;;1.35;;
20480;SDS011;10399;50.754;3.366;2022-07-25T14:48:34;8.38;;;1.05;;
20480;SDS011;10399;50.754;3.366;2022-07-25T14:51:03;3.63;;;0.85;;
20480;SDS011;10399;50.754;3.366;2022-07-25T14:53:31;4.20;;;0.73;;
20480;SDS011;10399;50.754;3.366;2022-07-25T14:55:58;1.90;;;0.70;;
20480;SDS011;10399;50.754;3.366;2022-07-25T14:58:27;3.30;;;0.63;;
20480;SDS011;10399;50.754;3.366;2022-07-25T15:00:54;1.50;;;0.60;;
20480;SDS011;10399;50.754;3.366;2022-07-25T15:03:21;3.30;;;0.70;;
20480;SDS011;10399;50.754;3.366;2022-07-25T15:05:47;4.45;;;0.70;;
20480;SDS011;10399;50.754;3.366;2022-07-25T15:08:14;2.95;;;0.65;;